createdAt,value
2019-04-07T00:00:34.534Z,21.13
2019-04-07T00:03:03.687Z,20.77
2019-04-07T00:05:32.398Z,21.03
2019-04-07T00:08:01.095Z,21.30
2019-04-07T00:10:30.379Z,19.90
2019-04-07T00:12:59.549Z,19.77
2019-04-07T00:15:28.263Z,19.30
2019-04-07T00:17:56.965Z,18.33
2019-04-07T00:20:25.599Z,18.53
2019-04-07T00:22:55.155Z,18.93
2019-04-07T00:25:23.823Z,18.27
2019-04-07T00:27:52.435Z,18.30
2019-04-07T00:30:21.241Z,18.47
2019-04-07T00:32:50.280Z,18.50
2019-04-07T00:35:25.957Z,17.80
2019-04-07T00:37:49.265Z,16.80
2019-04-07T00:40:18.560Z,17.97
2019-04-07T00:42:47.254Z,17.13
2019-04-07T00:45:16.393Z,17.73
2019-04-07T00:47:45.022Z,16.97
2019-04-07T00:50:14.158Z,16.73
2019-04-07T00:52:42.867Z,16.33
2019-04-07T00:55:11.641Z,17.43
2019-04-07T00:57:40.742Z,16.37
2019-04-07T01:00:10.748Z,15.87
2019-04-07T01:02:39.866Z,16.63
2019-04-07T01:05:08.835Z,16.47
2019-04-07T01:07:37.529Z,15.77
2019-04-07T01:10:06.267Z,16.50
2019-04-07T01:12:35.023Z,17.07
2019-04-07T01:15:04.325Z,16.17
2019-04-07T01:17:33.320Z,16.17
2019-04-07T01:20:02.006Z,15.83
2019-04-07T01:22:30.938Z,15.53
2019-04-07T01:24:59.647Z,15.20
2019-04-07T01:27:28.631Z,16.03
2019-04-07T01:29:57.563Z,15.70
2019-04-07T01:32:26.668Z,15.07
2019-04-07T01:34:55.877Z,15.33
2019-04-07T01:37:25.218Z,16.37
2019-04-07T01:39:53.915Z,17.37
2019-04-07T01:42:36.810Z,16.33
2019-04-07T01:45:23.773Z,17.17
2019-04-07T01:48:11.484Z,16.30
2019-04-07T01:51:08.148Z,15.83
2019-04-07T01:53:54.688Z,16.23
2019-04-07T01:56:41.439Z,16.00
2019-04-07T01:59:27.658Z,15.03
2019-04-07T02:02:09.278Z,15.50
2019-04-07T02:04:44.825Z,15.13
2019-04-07T02:07:32.667Z,14.87
2019-04-07T02:10:23.170Z,14.47
2019-04-07T02:13:08.536Z,15.00
2019-04-07T02:15:59.250Z,14.73
2019-04-07T02:18:40.998Z,15.93
2019-04-07T02:21:25.313Z,15.57
2019-04-07T02:24:28.431Z,15.93
2019-04-07T02:27:07.628Z,15.23
2019-04-07T02:29:53.429Z,16.13
2019-04-07T02:32:55.946Z,15.00
2019-04-07T02:35:39.033Z,17.17
2019-04-07T02:38:19.252Z,16.03
2019-04-07T02:41:08.737Z,17.20
2019-04-07T02:43:59.697Z,16.67
2019-04-07T02:46:53.413Z,16.50
2019-04-07T02:49:35.522Z,16.40
2019-04-07T02:52:35.691Z,16.03
2019-04-07T02:55:16.848Z,16.13
2019-04-07T02:57:58.116Z,15.40
2019-04-07T03:00:52.420Z,15.80
2019-04-07T03:03:27.039Z,15.70
2019-04-07T03:06:05.600Z,15.37
2019-04-07T03:08:49.297Z,15.10
2019-04-07T03:11:39.294Z,14.77
2019-04-07T03:14:15.034Z,14.17
2019-04-07T03:16:59.966Z,13.87
2019-04-07T03:19:48.718Z,14.97
2019-04-07T03:22:30.982Z,13.73
2019-04-07T03:25:11.071Z,14.87
2019-04-07T03:28:01.657Z,14.40
2019-04-07T03:30:38.544Z,14.83
2019-04-07T03:33:19.223Z,15.40
2019-04-07T03:36:23.321Z,15.80
2019-04-07T03:39:08.854Z,15.53
2019-04-07T03:41:45.886Z,16.03
2019-04-07T03:44:36.556Z,14.43
2019-04-07T03:47:10.724Z,14.17
2019-04-07T03:49:59.717Z,14.00
2019-04-07T03:52:59.226Z,14.20
2019-04-07T03:56:01.895Z,12.83
2019-04-07T03:58:58.632Z,12.37
2019-04-07T04:02:01.041Z,11.70
2019-04-07T04:04:50.100Z,10.70
2019-04-07T04:07:44.210Z,10.20
2019-04-07T04:10:32.053Z,9.33
2019-04-07T04:13:05.259Z,9.27
2019-04-07T04:15:58.892Z,8.37
2019-04-07T04:18:28.508Z,9.33
2019-04-07T04:20:57.318Z,9.30
2019-04-07T04:23:26.135Z,9.27
2019-04-07T04:25:55.688Z,9.03
2019-04-07T04:28:24.422Z,9.10
2019-04-07T04:30:53.711Z,8.60
2019-04-07T04:33:23.372Z,9.33
2019-04-07T04:35:52.227Z,9.07
2019-04-07T04:38:20.814Z,9.37
2019-04-07T04:40:50.471Z,9.10
2019-04-07T04:43:19.781Z,9.07
2019-04-07T04:45:48.493Z,8.67
2019-04-07T04:48:17.426Z,8.33
2019-04-07T04:50:47.131Z,7.53
2019-04-07T04:53:15.989Z,7.60
2019-04-07T04:55:45.739Z,7.40
2019-04-07T04:58:15.263Z,7.87
2019-04-07T05:00:44.584Z,7.30
2019-04-07T05:03:13.833Z,7.13
2019-04-07T05:05:43.038Z,7.67
2019-04-07T05:08:12.775Z,6.77
2019-04-07T05:10:41.669Z,7.57
2019-04-07T05:13:10.423Z,7.17
2019-04-07T05:15:39.107Z,6.67
2019-04-07T05:18:07.801Z,6.20
2019-04-07T05:20:36.430Z,5.63
2019-04-07T05:23:05.228Z,5.63
2019-04-07T05:25:33.897Z,5.90
2019-04-07T05:28:02.519Z,5.43
2019-04-07T05:30:31.458Z,5.60
2019-04-07T05:33:00.958Z,5.70
2019-04-07T05:35:29.791Z,7.00
2019-04-07T05:38:02.650Z,7.10
2019-04-07T05:40:29.434Z,7.23
2019-04-07T05:42:58.738Z,7.07
2019-04-07T05:45:27.916Z,6.67
2019-04-07T05:47:56.609Z,6.50
2019-04-07T05:50:27.494Z,7.00
2019-04-07T05:52:55.522Z,7.37
2019-04-07T05:55:24.604Z,6.67
2019-04-07T05:57:54.097Z,6.80
2019-04-07T06:00:23.454Z,6.43
2019-04-07T06:02:52.760Z,6.33
2019-04-07T06:05:22.143Z,6.20
2019-04-07T06:07:51.537Z,6.17
2019-04-07T06:10:22.872Z,5.47
2019-04-07T06:12:50.712Z,5.57
2019-04-07T06:15:22.059Z,5.50
2019-04-07T06:17:50.098Z,5.07
2019-04-07T06:20:18.997Z,5.50
2019-04-07T06:22:52.138Z,4.60
2019-04-07T06:25:18.761Z,4.60
2019-04-07T06:27:47.770Z,4.80
2019-04-07T06:30:17.599Z,4.30
2019-04-07T06:32:47.223Z,4.00
2019-04-07T06:35:15.970Z,4.10
2019-04-07T06:37:45.346Z,3.70
2019-04-07T06:40:14.379Z,3.53
2019-04-07T06:42:44.745Z,3.40
2019-04-07T06:45:15.411Z,3.60
2019-04-07T06:47:46.911Z,3.40
2019-04-07T06:50:44.382Z,2.97
2019-04-07T06:53:34.858Z,3.50
2019-04-07T06:56:18.646Z,3.20
2019-04-07T06:59:00.178Z,2.63
2019-04-07T07:01:58.112Z,3.33
2019-04-07T07:05:01.642Z,2.70
2019-04-07T07:07:49.861Z,2.70
2019-04-07T07:10:32.602Z,2.70
2019-04-07T07:13:28.821Z,2.50
2019-04-07T07:16:09.615Z,2.57
2019-04-07T07:19:01.558Z,2.47
2019-04-07T07:21:42.630Z,2.60
2019-04-07T07:24:12.331Z,1.97
2019-04-07T07:26:41.597Z,1.83
2019-04-07T07:29:13.256Z,2.07
2019-04-07T07:31:40.469Z,2.23
2019-04-07T07:34:10.828Z,2.57
2019-04-07T07:36:39.431Z,2.47
2019-04-07T07:39:11.564Z,2.40
2019-04-07T07:41:38.904Z,2.10
2019-04-07T07:44:09.460Z,2.20
2019-04-07T07:46:38.559Z,2.23
2019-04-07T07:49:07.504Z,2.30
2019-04-07T07:51:38.406Z,2.20
2019-04-07T07:54:06.394Z,2.40
2019-04-07T07:56:35.772Z,2.10
2019-04-07T07:59:04.651Z,2.00
2019-04-07T08:01:33.334Z,2.20
2019-04-07T08:04:02.013Z,2.80
2019-04-07T08:06:30.705Z,2.80
2019-04-07T08:09:09.938Z,2.80
2019-04-07T08:11:31.552Z,2.40
2019-04-07T08:13:59.889Z,2.00
2019-04-07T08:16:31.202Z,1.90
2019-04-07T08:19:00.535Z,2.30
2019-04-07T08:21:29.169Z,2.13
2019-04-07T08:23:57.929Z,2.00
2019-04-07T08:26:26.500Z,2.23
2019-04-07T08:28:55.099Z,2.07
2019-04-07T08:31:24.119Z,2.13
2019-04-07T08:33:52.829Z,1.93
2019-04-07T08:36:21.481Z,2.50
2019-04-07T08:38:53.988Z,1.70
2019-04-07T08:41:20.488Z,1.17
2019-04-07T08:43:53.232Z,1.70
2019-04-07T08:46:20.052Z,1.30
2019-04-07T08:48:51.021Z,1.30
2019-04-07T08:51:20.079Z,1.60
2019-04-07T08:53:48.731Z,1.30
2019-04-07T08:56:17.881Z,1.20
2019-04-07T08:58:46.640Z,1.20
2019-04-07T09:01:19.317Z,1.30
2019-04-07T09:03:45.794Z,1.00
2019-04-07T09:06:14.463Z,1.50
2019-04-07T09:08:43.894Z,1.10
2019-04-07T09:11:14.768Z,1.33
2019-04-07T09:13:48.929Z,1.40
2019-04-07T09:16:25.054Z,1.23
2019-04-07T09:19:11.293Z,1.60
2019-04-07T09:21:51.634Z,1.60
2019-04-07T09:24:50.841Z,1.40
2019-04-07T09:27:41.581Z,1.30
2019-04-07T09:30:28.023Z,1.30
2019-04-07T09:33:19.175Z,1.00
2019-04-07T09:36:02.534Z,0.87
2019-04-07T09:38:59.350Z,0.80
2019-04-07T09:41:52.599Z,0.80
2019-04-07T09:44:43.479Z,1.00
2019-04-07T09:47:46.863Z,1.07
2019-04-07T09:50:28.816Z,1.30
2019-04-07T09:53:18.546Z,1.20
2019-04-07T09:56:05.750Z,1.20
2019-04-07T09:58:51.495Z,1.10
2019-04-07T10:01:50.937Z,0.90
2019-04-07T10:04:44.388Z,1.10
2019-04-07T10:07:33.296Z,1.00
2019-04-07T10:10:19.394Z,2.27
2019-04-07T10:12:55.495Z,6.77
2019-04-07T10:15:46.195Z,2.10
2019-04-07T10:18:33.497Z,5.37
2019-04-07T10:21:21.771Z,0.73
2019-04-07T10:24:06.363Z,0.60
2019-04-07T10:26:54.230Z,0.90
2019-04-07T10:30:00.237Z,0.70
2019-04-07T10:32:42.925Z,0.60
2019-04-07T10:35:28.438Z,0.60
2019-04-07T10:38:19.181Z,0.50
2019-04-07T10:41:05.688Z,0.60
2019-04-07T10:43:59.989Z,0.60
2019-04-07T10:46:39.664Z,0.60
2019-04-07T10:49:27.348Z,0.50
2019-04-07T10:52:13.720Z,0.53
2019-04-07T10:55:04.958Z,0.50
2019-04-07T10:57:55.459Z,0.43
2019-04-07T11:00:50.898Z,0.60
2019-04-07T11:03:39.434Z,0.60
2019-04-07T11:06:23.891Z,0.50
2019-04-07T11:09:03.647Z,0.50
2019-04-07T11:11:50.036Z,0.60
2019-04-07T11:14:36.188Z,0.47
2019-04-07T11:17:27.261Z,0.50
2019-04-07T11:20:15.041Z,0.40
2019-04-07T11:23:00.942Z,0.50
2019-04-07T11:25:51.371Z,0.40
2019-04-07T11:28:44.502Z,0.40
2019-04-07T11:31:21.199Z,0.50
2019-04-07T11:34:04.391Z,0.40
2019-04-07T11:36:52.782Z,0.60
2019-04-07T11:39:43.554Z,0.53
2019-04-07T11:42:29.585Z,0.40
2019-04-07T11:45:20.741Z,0.40
2019-04-07T11:48:02.324Z,0.50
2019-04-07T11:50:37.512Z,0.50
2019-04-07T11:53:33.885Z,0.60
2019-04-07T11:56:11.236Z,0.60
2019-04-07T11:58:58.987Z,0.50
2019-04-07T12:01:53.065Z,0.50
2019-04-07T12:04:39.467Z,0.50
2019-04-07T12:07:21.980Z,2.33
2019-04-07T12:10:20.248Z,0.80
2019-04-07T12:13:06.461Z,0.60
2019-04-07T12:15:49.791Z,0.60
2019-04-07T12:18:36.067Z,0.60
2019-04-07T12:21:26.769Z,0.50
2019-04-07T12:24:13.676Z,0.50
2019-04-07T12:27:01.097Z,0.60
2019-04-07T12:29:41.641Z,0.60
2019-04-07T12:32:32.510Z,0.50
2019-04-07T12:35:19.503Z,0.40
2019-04-07T12:38:10.086Z,0.60
2019-04-07T12:40:56.378Z,0.63
2019-04-07T12:43:39.127Z,0.50
2019-04-07T12:46:36.503Z,0.57
2019-04-07T12:49:24.335Z,0.60
2019-04-07T12:52:26.173Z,0.60
2019-04-07T12:55:11.974Z,0.60
2019-04-07T12:57:55.550Z,0.60
2019-04-07T13:00:54.468Z,0.73
2019-04-07T13:03:20.018Z,0.70
2019-04-07T13:06:10.767Z,0.83
2019-04-07T13:09:04.246Z,0.70
2019-04-07T13:11:49.457Z,0.60
2019-04-07T13:14:35.281Z,0.70
2019-04-07T13:17:21.630Z,0.70
2019-04-07T13:20:08.317Z,0.70
2019-04-07T13:22:51.841Z,0.70
2019-04-07T13:25:41.892Z,0.70
2019-04-07T13:28:30.532Z,0.80
2019-04-07T13:31:19.157Z,0.70
2019-04-07T13:34:06.106Z,0.70
2019-04-07T13:36:51.065Z,0.80
2019-04-07T13:39:45.931Z,0.80
2019-04-07T13:42:45.752Z,0.90
2019-04-07T13:45:22.876Z,0.90
2019-04-07T13:48:06.665Z,0.80
2019-04-07T13:50:54.466Z,0.80
2019-04-07T13:53:48.141Z,0.63
2019-04-07T13:56:47.998Z,0.80
2019-04-07T13:59:29.389Z,0.80
2019-04-07T14:02:15.497Z,0.77
2019-04-07T14:05:05.149Z,0.80
2019-04-07T14:07:53.941Z,0.80
2019-04-07T14:10:42.026Z,0.80
2019-04-07T14:13:37.893Z,0.80
2019-04-07T14:16:23.543Z,0.87
2019-04-07T14:19:23.122Z,0.80
2019-04-07T14:22:11.154Z,0.80
2019-04-07T14:24:51.543Z,0.80
2019-04-07T14:27:38.369Z,0.90
2019-04-07T14:30:13.654Z,0.90
2019-04-07T14:33:00.066Z,0.80
2019-04-07T14:35:54.293Z,0.90
2019-04-07T14:38:37.749Z,1.00
2019-04-07T14:41:18.312Z,1.10
2019-04-07T14:44:06.928Z,1.00
2019-04-07T14:46:47.097Z,0.90
2019-04-07T14:49:41.141Z,0.93
2019-04-07T14:52:21.079Z,0.90
2019-04-07T14:55:18.391Z,1.10
2019-04-07T14:58:01.421Z,1.37
2019-04-07T15:01:02.665Z,0.90
2019-04-07T15:03:29.442Z,1.00
2019-04-07T15:05:58.263Z,0.90
2019-04-07T15:08:53.140Z,0.87
2019-04-07T15:11:29.706Z,1.17
2019-04-07T15:14:00.666Z,1.10
2019-04-07T15:16:28.812Z,1.13
2019-04-07T15:18:57.400Z,1.00
2019-04-07T15:21:26.109Z,0.90
2019-04-07T15:23:54.697Z,1.13
2019-04-07T15:26:23.626Z,1.10
2019-04-07T15:28:52.417Z,1.30
2019-04-07T15:31:21.691Z,1.30
2019-04-07T15:33:50.875Z,1.30
2019-04-07T15:36:19.749Z,1.30
2019-04-07T15:38:48.595Z,1.40
2019-04-07T15:41:19.112Z,1.20
2019-04-07T15:43:47.559Z,1.00
2019-04-07T15:46:18.085Z,1.10
2019-04-07T15:48:46.618Z,1.20
2019-04-07T15:51:15.283Z,1.30
2019-04-07T15:53:48.454Z,1.30
2019-04-07T15:56:17.262Z,1.20
2019-04-07T15:58:45.201Z,1.20
2019-04-07T16:01:13.973Z,1.30
2019-04-07T16:03:45.136Z,1.20
2019-04-07T16:06:15.287Z,1.30
2019-04-07T16:08:43.184Z,1.27
2019-04-07T16:11:12.617Z,1.23
2019-04-07T16:13:42.212Z,1.30
2019-04-07T16:16:11.329Z,0.93
2019-04-07T16:18:42.936Z,1.30
2019-04-07T16:21:11.167Z,1.30
2019-04-07T16:23:40.641Z,1.20
2019-04-07T16:26:10.706Z,1.30
2019-04-07T16:28:43.257Z,1.30
2019-04-07T16:31:10.114Z,1.30
2019-04-07T16:33:39.697Z,1.23
2019-04-07T16:36:08.643Z,1.43
2019-04-07T16:38:37.313Z,1.60
2019-04-07T16:41:06.605Z,1.20
2019-04-07T16:43:37.675Z,1.43
2019-04-07T16:46:05.639Z,1.20
2019-04-07T16:48:39.241Z,1.20
2019-04-07T16:51:04.572Z,1.47
2019-04-07T16:53:36.457Z,1.30
2019-04-07T16:56:04.127Z,1.40
2019-04-07T16:58:35.344Z,1.20
2019-04-07T17:01:03.070Z,1.40
2019-04-07T17:03:31.685Z,1.30
2019-04-07T17:06:01.663Z,1.37
2019-04-07T17:08:30.578Z,1.40
2019-04-07T17:10:59.534Z,1.30
2019-04-07T17:13:37.438Z,1.47
2019-04-07T17:15:59.795Z,1.67
2019-04-07T17:18:38.888Z,1.37
2019-04-07T17:21:11.731Z,1.30
2019-04-07T17:23:40.772Z,1.40
2019-04-07T17:26:09.554Z,1.40
2019-04-07T17:28:38.890Z,2.00
2019-04-07T17:31:07.865Z,2.20
2019-04-07T17:33:37.929Z,2.20
2019-04-07T17:36:06.773Z,1.40
2019-04-07T17:38:43.185Z,1.30
2019-04-07T17:41:15.000Z,1.20
2019-04-07T17:44:15.302Z,1.60
2019-04-07T17:46:58.465Z,1.40
2019-04-07T17:49:38.994Z,1.40
2019-04-07T17:52:40.538Z,1.53
2019-04-07T17:55:28.832Z,1.67
2019-04-07T17:58:26.301Z,4.77
2019-04-07T18:01:32.196Z,4.73
2019-04-07T18:04:17.321Z,2.07
2019-04-07T18:07:07.945Z,1.80
2019-04-07T18:09:57.307Z,7.93
2019-04-07T18:12:47.710Z,3.50
2019-04-07T18:15:40.117Z,2.57
2019-04-07T18:18:19.110Z,1.30
2019-04-07T18:21:11.679Z,1.40
2019-04-07T18:24:01.193Z,1.40
2019-04-07T18:26:35.480Z,1.20
2019-04-07T18:29:29.932Z,1.50
2019-04-07T18:32:16.593Z,1.70
2019-04-07T18:34:52.906Z,1.63
2019-04-07T18:37:32.408Z,1.47
2019-04-07T18:40:29.587Z,1.90
2019-04-07T18:43:08.074Z,1.70
2019-04-07T18:45:58.955Z,1.60
2019-04-07T18:49:01.001Z,1.50
2019-04-07T18:51:48.999Z,1.50
2019-04-07T18:54:51.074Z,1.40
2019-04-07T18:57:30.392Z,1.27
2019-04-07T19:00:32.312Z,1.40
2019-04-07T19:03:10.592Z,1.43
2019-04-07T19:05:53.038Z,1.20
2019-04-07T19:08:46.263Z,1.10
2019-04-07T19:11:37.350Z,0.90
2019-04-07T19:14:36.593Z,1.10
2019-04-07T19:17:09.560Z,1.13
2019-04-07T19:20:06.639Z,1.10
2019-04-07T19:22:49.102Z,1.10
2019-04-07T19:25:25.840Z,1.07
2019-04-07T19:28:16.131Z,1.10
2019-04-07T19:31:09.625Z,1.10
2019-04-07T19:34:03.869Z,1.20
2019-04-07T19:36:58.511Z,1.17
2019-04-07T19:39:40.484Z,1.10
2019-04-07T19:42:27.321Z,1.20
2019-04-07T19:45:15.515Z,1.40
2019-04-07T19:48:11.227Z,1.23
2019-04-07T19:51:04.279Z,1.10
2019-04-07T19:53:51.902Z,1.10
2019-04-07T19:56:39.556Z,1.30
2019-04-07T19:59:24.758Z,1.20
2019-04-07T20:02:15.338Z,1.50
2019-04-07T20:05:18.479Z,1.60
2019-04-07T20:08:03.182Z,1.53
2019-04-07T20:10:39.012Z,1.60
2019-04-07T20:13:34.408Z,1.73
2019-04-07T20:16:22.576Z,1.80
2019-04-07T20:19:13.515Z,1.80
2019-04-07T20:22:06.953Z,1.70
2019-04-07T20:24:52.992Z,2.00
2019-04-07T20:27:57.329Z,1.60
2019-04-07T20:30:49.760Z,2.10
2019-04-07T20:33:35.926Z,1.97
2019-04-07T20:36:24.946Z,2.20
2019-04-07T20:39:19.329Z,2.40
2019-04-07T20:42:11.416Z,2.20
2019-04-07T20:45:03.595Z,2.10
2019-04-07T20:47:45.313Z,2.50
2019-04-07T20:50:35.591Z,2.37
2019-04-07T20:53:24.203Z,2.40
2019-04-07T20:56:27.458Z,2.20
2019-04-07T20:59:13.959Z,2.17
2019-04-07T21:02:09.421Z,2.63
2019-04-07T21:04:53.195Z,2.30
2019-04-07T21:07:39.675Z,2.30
2019-04-07T21:10:42.248Z,2.13
2019-04-07T21:13:39.489Z,2.40
2019-04-07T21:16:33.206Z,2.80
2019-04-07T21:19:19.324Z,2.30
2019-04-07T21:21:58.638Z,2.47
2019-04-07T21:24:37.252Z,2.50
2019-04-07T21:27:28.315Z,2.83
2019-04-07T21:30:17.205Z,2.30
2019-04-07T21:33:11.105Z,2.40
2019-04-07T21:36:04.314Z,2.70
2019-04-07T21:38:45.359Z,2.60
2019-04-07T21:41:50.808Z,2.50
2019-04-07T21:44:29.383Z,2.57
2019-04-07T21:47:27.735Z,2.23
2019-04-07T21:50:31.000Z,2.30
2019-04-07T21:53:10.085Z,2.20
2019-04-07T21:55:46.026Z,2.00
2019-04-07T21:58:36.698Z,2.37
2019-04-07T22:01:14.617Z,2.23
2019-04-07T22:04:05.118Z,2.43
2019-04-07T22:06:42.289Z,2.20
2019-04-07T22:09:20.648Z,2.33
2019-04-07T22:11:49.627Z,2.33
2019-04-07T22:14:18.845Z,2.40
2019-04-07T22:16:47.484Z,2.40
2019-04-07T22:19:17.382Z,2.50
2019-04-07T22:21:46.453Z,2.30
2019-04-07T22:24:15.289Z,2.60
2019-04-07T22:26:49.141Z,1.97
2019-04-07T22:29:14.241Z,2.10
2019-04-07T22:31:51.527Z,2.07
2019-04-07T22:34:20.735Z,2.00
2019-04-07T22:36:49.729Z,2.20
2019-04-07T22:39:18.536Z,2.13
2019-04-07T22:41:47.094Z,2.03
2019-04-07T22:44:15.680Z,2.10
2019-04-07T22:46:48.104Z,2.07
2019-04-07T22:49:15.510Z,2.20
2019-04-07T22:51:46.968Z,2.20
2019-04-07T22:54:14.526Z,2.37
2019-04-07T22:56:43.128Z,2.10
2019-04-07T22:59:12.796Z,2.17
2019-04-07T23:01:41.679Z,2.70
2019-04-07T23:04:10.826Z,2.00
2019-04-07T23:06:40.374Z,2.07
2019-04-07T23:09:09.961Z,1.90
2019-04-07T23:11:38.673Z,2.00
2019-04-07T23:14:08.142Z,2.10
2019-04-07T23:16:36.809Z,2.17
2019-04-07T23:19:05.386Z,2.00
2019-04-07T23:21:34.148Z,2.20
2019-04-07T23:24:03.379Z,2.27
2019-04-07T23:26:32.149Z,2.00
2019-04-07T23:29:00.730Z,2.00
2019-04-07T23:31:30.907Z,2.27
2019-04-07T23:33:59.508Z,1.93
2019-04-07T23:36:28.415Z,1.83
2019-04-07T23:38:57.969Z,1.80
2019-04-07T23:41:27.723Z,1.90
2019-04-07T23:43:56.800Z,1.83
2019-04-07T23:46:27.228Z,2.20
2019-04-07T23:48:56.008Z,1.90
2019-04-07T23:51:24.680Z,2.10
2019-04-07T23:54:07.249Z,1.93
2019-04-07T23:56:36.087Z,1.90
2019-04-07T23:59:06.072Z,2.10
